Sign in

Advertise on goboko.com

You can reach many thousands of active pilots each month by advertising on goboko.com.

Please contact us for details.

Advertising

Info

Aviation weather - KJYO

METAR KJYO 310615Z AUTO 00000KT 10SM CLR 05/05 A3003 RMK AO2

TAF KIAD 300521Z 3006/3112 00000KT P6SM SKC FM301400 33006KT P6SM SCT250 FM301800 33007KT P6SM SCT040 FM310300 00000KT P6SM SCT040 FM310800 00000KT P6SM BKN040

ADDS Experimental. Do not use for flight-related decisions.

Javascript required. Ce site nécessite javascript